| time (UTC) | temp F | wind direction | speed MPH | gust MPH | rain 1hr in | rain 24hr in | rain mn in | humidity % | barometer mb |
| 20260510224604 | 62 | 220 | 5.0 | 8.0 | 0.00 | 0.01 | 0.01 | 81 | 1013.8 |
| 20260510223057 | 62 | 166 | 6.0 | 10.0 | 0.00 | 0.01 | 0.01 | 83 | 1013.6 |
| 20260510221555 | 62 | 199 | 6.0 | 8.0 | 0.00 | 0.01 | 0.01 | 82 | 1013.6 |
| 20260510220059 | 61 | 235 | 4.0 | 10.0 | 0.00 | 0.01 | 0.01 | 83 | 1013.6 |
| 20260510214611 | 61 | 206 | 5.0 | 8.0 | 0.00 | 0.01 | 0.01 | 83 | 1013.7 |
| 20260510213057 | 61 | 206 | 8.0 | 11.0 | 0.00 | 0.01 | 0.01 | 83 | 1013.6 |
| 20260510211556 | 61 | 208 | 7.0 | 12.0 | 0.00 | 0.01 | 0.01 | 82 | 1013.5 |
| 20260510210101 | 61 | 181 | 9.0 | 13.0 | 0.00 | 0.01 | 0.01 | 82 | 1013.1 |
| 20260510204559 | 63 | 156 | 7.0 | 11.0 | 0.00 | 0.01 | 0.01 | 78 | 1012.9 |
| 20260510203055 | 63 | 181 | 5.0 | 10.0 | 0.00 | 0.01 | 0.01 | 79 | 1012.7 |
| 20260510201557 | 63 | 198 | 8.0 | 17.0 | 0.00 | 0.01 | 0.01 | 80 | 1012.7 |
| 20260510200113 | 65 | 175 | 10.0 | 16.0 | 0.00 | 0.01 | 0.01 | 76 | 1012.8 |
| 20260510194604 | 63 | 186 | 10.0 | 16.0 | 0.00 | 0.01 | 0.01 | 78 | 1013.0 |
| 20260510193101 | 66 | 175 | 7.0 | 11.0 | 0.00 | 0.01 | 0.01 | 73 | 1012.9 |
| 20260510191753 | 65 | 195 | 6.0 | 11.0 | 0.00 | 0.01 | 0.01 | 77 | 1013.1 |
| 20260510190058 | 63 | 192 | 6.0 | 11.0 | 0.00 | 0.01 | 0.01 | 79 | 1013.0 |
| 20260510184601 | 62 | 193 | 8.0 | 13.0 | 0.00 | 0.01 | 0.01 | 80 | 1013.3 |
| 20260510183055 | 64 | 197 | 5.0 | 11.0 | 0.00 | 0.01 | 0.01 | 75 | 1013.3 |
| 20260510181601 | 63 | 180 | 4.0 | 9.0 | 0.00 | 0.01 | 0.01 | 79 | 1013.4 |
| 20260510180056 | 62 | 191 | 8.0 | 11.0 | 0.00 | 0.01 | 0.01 | 80 | 1013.2 |
| 20260510174553 | 61 | 203 | 5.0 | 8.0 | 0.00 | 0.01 | 0.01 | 84 | 1013.1 |
| 20260510173055 | 60 | 215 | 6.0 | 9.0 | 0.00 | 0.01 | 0.01 | 85 | 1013.2 |
| 20260510171556 | 59 | 219 | 5.0 | 9.0 | 0.00 | 0.01 | 0.01 | 84 | 1013.3 |
| 20260510170057 | 60 | 192 | 4.0 | 8.0 | 0.00 | 0.01 | 0.01 | 84 | 1013.4 |
| 20260510164552 | 59 | 202 | 6.0 | 9.0 | 0.00 | 0.01 | 0.01 | 86 | 1013.6 |
| 20260510163055 | 58 | 189 | 6.0 | 9.0 | 0.00 | 0.01 | 0.01 | 88 | 1013.9 |
| 20260510161555 | 57 | 216 | 7.0 | 10.0 | 0.00 | 0.01 | 0.01 | 89 | 1013.9 |
| 20260510154554 | 56 | 205 | 6.0 | 8.0 | 0.00 | 0.01 | 0.01 | 89 | 1014.0 |
| 20260510153052 | 56 | 210 | 4.0 | 7.0 | 0.00 | 0.01 | 0.01 | 89 | 1014.0 |
| 20260510151553 | 56 | 206 | 5.0 | 7.0 | 0.00 | 0.01 | 0.01 | 89 | 1014.1 |
| 20260510144600 | 56 | 164 | 4.0 | 8.0 | 0.00 | 0.01 | 0.01 | 90 | 1014.2 |
| 20260510143054 | 55 | 206 | 5.0 | 9.0 | 0.00 | 0.01 | 0.01 | 90 | 1013.9 |
| 20260510141557 | 55 | 186 | 6.0 | 10.0 | 0.00 | 0.01 | 0.01 | 91 | 1014.1 |
| 20260510140101 | 55 | 191 | 6.0 | 10.0 | 0.00 | 0.01 | 0.01 | 90 | 1013.8 |
| 20260510134606 | 55 | 191 | 6.0 | 10.0 | 0.00 | 0.01 | 0.01 | 90 | 1013.7 |
| 20260510133056 | 55 | 195 | 4.0 | 7.0 | 0.00 | 0.01 | 0.01 | 90 | 1013.6 |
| 20260510131554 | 55 | 192 | 5.0 | 8.0 | 0.00 | 0.01 | 0.01 | 90 | 1013.6 |
| 20260510130057 | 54 | 210 | 4.0 | 7.0 | 0.00 | 0.01 | 0.01 | 91 | 1013.4 |
| 20260510124602 | 54 | 208 | 6.0 | 9.0 | 0.00 | 0.01 | 0.01 | 90 | 1013.2 |
| 20260510123102 | 55 | 205 | 5.0 | 7.0 | 0.00 | 0.01 | 0.01 | 90 | 1013.2 |
| 20260510121554 | 54 | 237 | 3.0 | 6.0 | 0.00 | 0.01 | 0.01 | 90 | 1013.2 |
| 20260510114556 | 54 | 276 | 1.0 | 4.0 | 0.00 | 0.01 | 0.01 | 91 | 1012.7 |
| 20260510113057 | 54 | 279 | 2.0 | 6.0 | 0.00 | 0.01 | 0.01 | 91 | 1012.7 |
| 20260510111556 | 54 | 360 | 3.0 | 9.0 | 0.00 | 0.01 | 0.01 | 91 | 1012.3 |
| 20260510110058 | 54 | 346 | 5.0 | 9.0 | 0.00 | 0.01 | 0.01 | 91 | 1012.2 |
| 20260510104558 | 54 | 31 | 4.0 | 9.0 | 0.00 | 0.01 | 0.01 | 91 | 1012.1 |
| 20260510103109 | 54 | 9 | 6.0 | 9.0 | 0.00 | 0.01 | 0.01 | 92 | 1012.3 |
| 20260510101603 | 54 | 46 | 4.0 | 9.0 | 0.00 | 0.01 | 0.01 | 92 | 1012.1 |
| 20260510100055 | 54 | 22 | 8.0 | 11.0 | 0.00 | 0.01 | 0.01 | 92 | 1012.2 |
| 20260510094556 | 53 | 17 | 4.0 | 10.0 | 0.01 | 0.02 | 0.01 | 93 | 1012.4 |
| 20260510093054 | 53 | 49 | 7.0 | 10.0 | 0.01 | 0.02 | 0.01 | 93 | 1012.7 |
| 20260510091557 | 53 | 45 | 7.0 | 10.0 | 0.01 | 0.02 | 0.01 | 93 | 1012.8 |
| 20260510090056 | 53 | 29 | 9.0 | 12.0 | 0.01 | 0.02 | 0.01 | 93 | 1012.5 |
| 20260510084555 | 53 | 35 | 8.0 | 13.0 | 0.00 | 0.01 | 0.00 | 93 | 1012.8 |
| 20260510083054 | 54 | 360 | 11.0 | 14.0 | 0.00 | 0.01 | 0.00 | 93 | 1012.5 |
| 20260510081600 | 53 | 360 | 4.0 | 6.0 | 0.00 | 0.01 | 0.00 | 94 | 1011.9 |
| 20260510080053 | 53 | 14 | 4.0 | 8.0 | 0.00 | 0.01 | 0.00 | 94 | 1011.8 |
| 20260510074553 | 53 | 17 | 5.0 | 8.0 | 0.00 | 0.01 | 0.00 | 94 | 1011.7 |
| 20260510073105 | 53 | 12 | 5.0 | 8.0 | 0.00 | 0.01 | 0.00 | 94 | 1011.6 |
| 20260510071559 | 53 | 41 | 6.0 | 11.0 | 0.00 | 0.01 | 0.00 | 94 | 1011.8 |
| 20260510070057 | 53 | 31 | 7.0 | 11.0 | 0.00 | 0.01 | 0.00 | 94 | 1011.9 |
| 20260510064554 | 53 | 275 | 3.0 | 5.0 | 0.00 | 0.01 | 0.00 | 94 | 1011.8 |
| 20260510063104 | 53 | 215 | 3.0 | 6.0 | 0.00 | 0.01 | 0.00 | 93 | 1011.5 |
| 20260510061605 | 53 | 212 | 2.0 | 5.0 | 0.00 | 0.01 | 0.00 | 93 | 1011.3 |
| 20260510060058 | 53 | 194 | 2.0 | 4.0 | 0.00 | 0.01 | 0.00 | 93 | 1011.5 |
| 20260510054601 | 53 | 200 | 3.0 | 5.0 | 0.00 | 0.01 | 0.00 | 92 | 1011.6 |
| 20260510053054 | 54 | 200 | 1.0 | 4.0 | 0.00 | 0.01 | 0.00 | 92 | 1011.6 |
| 20260510051555 | 54 | 185 | 1.0 | 4.0 | 0.00 | 0.01 | 0.00 | 91 | 1011.6 |
| 20260510050056 | 55 | 192 | 3.0 | 5.0 | 0.00 | 0.01 | 0.00 | 91 | 1011.7 |
| 20260510044553 | 55 | 190 | 2.0 | 4.0 | 0.00 | 0.01 | 0.00 | 91 | 1011.8 |
| 20260510043056 | 55 | 0 | 0.0 | 2.0 | 0.00 | 0.01 | 0.00 | 90 | 1011.8 |
| 20260510041629 | 55 | 0 | 1.0 | 4.0 | 0.00 | 0.01 | 0.00 | 90 | 1011.7 |
| 20260510040056 | 55 | 0 | 0.0 | 0.0 | 0.00 | 0.01 | 0.00 | 90 | 1011.6 |
| 20260510034558 | 56 | 0 | 0.0 | 0.0 | 0.00 | 0.01 | 0.01 | 90 | 1011.6 |
| 20260510033115 | 56 | 0 | 0.0 | 0.0 | 0.00 | 0.01 | 0.01 | 90 | 1011.3 |
| 20260510031557 | 56 | 0 | 0.0 | 0.0 | 0.00 | 0.01 | 0.01 | 89 | 1011.3 |
| 20260510030054 | 56 | 25 | 1.0 | 5.0 | 0.00 | 0.01 | 0.01 | 89 | 1011.3 |
| 20260510024610 | 56 | 54 | 2.0 | 4.0 | 0.00 | 0.01 | 0.01 | 89 | 1011.3 |
| 20260510023101 | 56 | 0 | 0.0 | 0.0 | 0.00 | 0.01 | 0.01 | 88 | 1011.5 |
| 20260510021555 | 56 | 54 | 1.0 | 3.0 | 0.00 | 0.01 | 0.01 | 87 | 1011.4 |
| 20260510020056 | 56 | 54 | 1.0 | 4.0 | 0.00 | 0.01 | 0.01 | 87 | 1011.5 |
| 20260510014612 | 57 | 179 | 2.0 | 5.0 | 0.00 | 0.01 | 0.01 | 86 | 1011.4 |
| 20260510013104 | 57 | 166 | 2.0 | 6.0 | 0.00 | 0.01 | 0.01 | 87 | 1011.4 |
| 20260510011601 | 57 | 197 | 1.0 | 4.0 | 0.00 | 0.01 | 0.01 | 87 | 1011.2 |
| 20260510010053 | 57 | 0 | 2.0 | 4.0 | 0.00 | 0.01 | 0.01 | 87 | 1011.0 |
| 20260510004600 | 57 | 0 | 2.0 | 6.0 | 0.00 | 0.01 | 0.01 | 88 | 1011.0 |
| 20260510003057 | 57 | 225 | 2.0 | 3.0 | 0.00 | 0.01 | 0.01 | 87 | 1010.8 |
| 20260510001554 | 57 | 17 | 3.0 | 7.0 | 0.00 | 0.01 | 0.01 | 87 | 1010.7 |
| 20260510000054 | 57 | 4 | 2.0 | 4.0 | 0.00 | 0.01 | 0.01 | 86 | 1010.7 |
| 20260509234554 | 57 | 18 | 3.0 | 5.0 | 0.00 | 0.01 | 0.01 | 86 | 1010.7 |
| 20260509233055 | 57 | 0 | 0.0 | 3.0 | 0.00 | 0.01 | 0.01 | 87 | 1010.5 |
| 20260509231606 | 56 | 355 | 1.0 | 6.0 | 0.00 | 0.01 | 0.01 | 87 | 1010.6 |
| 20260509230054 | 56 | 306 | 1.0 | 3.0 | 0.00 | 0.01 | 0.01 | 88 | 1010.7 |